sensor_id;sensor_type;location;lat;lon;timestamp;P1;durP1;ratioP1;P2;durP2;ratioP2
40314;SDS011;26021;45.640;11.302;2024-03-17T00:02:16;99.88;;;66.75;;
40314;SDS011;26021;45.640;11.302;2024-03-17T00:04:45;102.43;;;68.53;;
40314;SDS011;26021;45.640;11.302;2024-03-17T00:07:11;104.35;;;69.28;;
40314;SDS011;26021;45.640;11.302;2024-03-17T00:09:37;108.30;;;73.30;;
40314;SDS011;26021;45.640;11.302;2024-03-17T00:12:02;102.40;;;68.55;;
40314;SDS011;26021;45.640;11.302;2024-03-17T00:14:28;104.22;;;67.88;;
40314;SDS011;26021;45.640;11.302;2024-03-17T00:16:54;106.47;;;70.20;;
40314;SDS011;26021;45.640;11.302;2024-03-17T00:19:19;109.25;;;70.75;;
40314;SDS011;26021;45.640;11.302;2024-03-17T00:21:47;104.40;;;70.10;;
40314;SDS011;26021;45.640;11.302;2024-03-17T00:24:15;105.63;;;69.55;;
40314;SDS011;26021;45.640;11.302;2024-03-17T00:26:41;107.93;;;70.65;;
40314;SDS011;26021;45.640;11.302;2024-03-17T00:29:07;106.35;;;70.35;;
40314;SDS011;26021;45.640;11.302;2024-03-17T00:31:32;103.45;;;68.70;;
40314;SDS011;26021;45.640;11.302;2024-03-17T00:33:58;111.00;;;71.32;;
40314;SDS011;26021;45.640;11.302;2024-03-17T00:36:23;108.38;;;70.90;;
40314;SDS011;26021;45.640;11.302;2024-03-17T00:38:48;102.80;;;66.80;;
40314;SDS011;26021;45.640;11.302;2024-03-17T00:41:14;106.93;;;71.07;;
40314;SDS011;26021;45.640;11.302;2024-03-17T00:43:40;111.13;;;72.20;;
40314;SDS011;26021;45.640;11.302;2024-03-17T00:46:06;107.70;;;70.55;;
40314;SDS011;26021;45.640;11.302;2024-03-17T00:48:31;104.93;;;71.50;;
40314;SDS011;26021;45.640;11.302;2024-03-17T00:50:57;104.75;;;69.22;;
40314;SDS011;26021;45.640;11.302;2024-03-17T00:53:24;95.60;;;63.00;;
40314;SDS011;26021;45.640;11.302;2024-03-17T00:55:53;96.90;;;63.40;;
40314;SDS011;26021;45.640;11.302;2024-03-17T00:58:20;94.53;;;62.67;;
40314;SDS011;26021;45.640;11.302;2024-03-17T01:00:46;103.60;;;66.25;;
40314;SDS011;26021;45.640;11.302;2024-03-17T01:03:13;104.65;;;65.68;;
40314;SDS011;26021;45.640;11.302;2024-03-17T01:05:39;106.30;;;67.40;;
40314;SDS011;26021;45.640;11.302;2024-03-17T01:08:09;102.90;;;66.03;;
40314;SDS011;26021;45.640;11.302;2024-03-17T01:10:39;99.70;;;63.38;;
40314;SDS011;26021;45.640;11.302;2024-03-17T01:13:06;95.00;;;64.70;;
40314;SDS011;26021;45.640;11.302;2024-03-17T01:15:32;98.13;;;61.67;;
40314;SDS011;26021;45.640;11.302;2024-03-17T01:17:58;96.38;;;62.45;;
40314;SDS011;26021;45.640;11.302;2024-03-17T01:20:25;97.57;;;60.95;;
40314;SDS011;26021;45.640;11.302;2024-03-17T01:22:50;88.38;;;58.55;;
40314;SDS011;26021;45.640;11.302;2024-03-17T01:25:16;96.28;;;61.63;;
40314;SDS011;26021;45.640;11.302;2024-03-17T01:27:42;96.65;;;62.20;;
40314;SDS011;26021;45.640;11.302;2024-03-17T01:30:08;101.13;;;65.57;;
40314;SDS011;26021;45.640;11.302;2024-03-17T01:32:37;99.43;;;64.40;;
40314;SDS011;26021;45.640;11.302;2024-03-17T01:35:03;100.75;;;65.65;;
40314;SDS011;26021;45.640;11.302;2024-03-17T01:37:29;99.97;;;63.22;;
40314;SDS011;26021;45.640;11.302;2024-03-17T01:39:57;100.45;;;66.20;;
40314;SDS011;26021;45.640;11.302;2024-03-17T01:42:23;101.15;;;67.03;;
40314;SDS011;26021;45.640;11.302;2024-03-17T01:44:49;99.68;;;66.68;;
40314;SDS011;26021;45.640;11.302;2024-03-17T01:47:15;103.65;;;64.88;;
40314;SDS011;26021;45.640;11.302;2024-03-17T01:49:44;104.95;;;66.13;;
40314;SDS011;26021;45.640;11.302;2024-03-17T01:52:13;98.32;;;65.15;;
40314;SDS011;26021;45.640;11.302;2024-03-17T01:54:39;95.47;;;61.75;;
40314;SDS011;26021;45.640;11.302;2024-03-17T01:57:06;105.55;;;67.00;;
40314;SDS011;26021;45.640;11.302;2024-03-17T01:59:32;103.60;;;67.97;;
40314;SDS011;26021;45.640;11.302;2024-03-17T02:01:58;104.78;;;66.22;;
40314;SDS011;26021;45.640;11.302;2024-03-17T02:04:24;105.07;;;66.32;;
40314;SDS011;26021;45.640;11.302;2024-03-17T02:06:50;103.60;;;66.90;;
40314;SDS011;26021;45.640;11.302;2024-03-17T02:09:15;102.82;;;65.30;;
40314;SDS011;26021;45.640;11.302;2024-03-17T02:11:41;96.78;;;64.22;;
40314;SDS011;26021;45.640;11.302;2024-03-17T02:14:07;94.35;;;62.53;;
40314;SDS011;26021;45.640;11.302;2024-03-17T02:16:33;97.78;;;63.05;;
40314;SDS011;26021;45.640;11.302;2024-03-17T02:18:58;93.20;;;61.58;;
40314;SDS011;26021;45.640;11.302;2024-03-17T02:21:24;102.32;;;63.35;;
40314;SDS011;26021;45.640;11.302;2024-03-17T02:23:52;94.45;;;61.10;;
40314;SDS011;26021;45.640;11.302;2024-03-17T02:26:19;100.55;;;65.60;;
40314;SDS011;26021;45.640;11.302;2024-03-17T02:28:45;98.07;;;63.63;;
40314;SDS011;26021;45.640;11.302;2024-03-17T02:31:12;98.50;;;63.20;;
40314;SDS011;26021;45.640;11.302;2024-03-17T02:33:40;94.22;;;62.53;;
40314;SDS011;26021;45.640;11.302;2024-03-17T02:36:06;98.43;;;62.58;;
40314;SDS011;26021;45.640;11.302;2024-03-17T02:38:32;102.15;;;62.85;;
40314;SDS011;26021;45.640;11.302;2024-03-17T02:41:17;99.95;;;62.65;;
40314;SDS011;26021;45.640;11.302;2024-03-17T02:43:43;92.00;;;62.70;;
40314;SDS011;26021;45.640;11.302;2024-03-17T02:46:14;92.82;;;61.30;;
40314;SDS011;26021;45.640;11.302;2024-03-17T02:48:40;89.47;;;57.25;;
40314;SDS011;26021;45.640;11.302;2024-03-17T02:51:16;85.80;;;56.30;;
40314;SDS011;26021;45.640;11.302;2024-03-17T02:53:45;96.05;;;61.95;;
40314;SDS011;26021;45.640;11.302;2024-03-17T02:56:12;97.25;;;62.92;;
40314;SDS011;26021;45.640;11.302;2024-03-17T02:58:38;100.93;;;61.35;;
40314;SDS011;26021;45.640;11.302;2024-03-17T03:01:07;95.32;;;60.30;;
40314;SDS011;26021;45.640;11.302;2024-03-17T03:03:34;88.28;;;56.22;;
40314;SDS011;26021;45.640;11.302;2024-03-17T03:06:00;87.75;;;57.55;;
40314;SDS011;26021;45.640;11.302;2024-03-17T03:08:29;88.90;;;57.08;;
40314;SDS011;26021;45.640;11.302;2024-03-17T03:10:58;90.28;;;59.47;;
40314;SDS011;26021;45.640;11.302;2024-03-17T03:13:24;86.03;;;56.97;;
40314;SDS011;26021;45.640;11.302;2024-03-17T03:15:50;93.47;;;59.95;;
40314;SDS011;26021;45.640;11.302;2024-03-17T03:18:16;94.03;;;60.40;;
40314;SDS011;26021;45.640;11.302;2024-03-17T03:20:42;96.93;;;62.38;;
40314;SDS011;26021;45.640;11.302;2024-03-17T03:23:08;102.82;;;63.53;;
40314;SDS011;26021;45.640;11.302;2024-03-17T03:25:34;93.05;;;59.88;;
40314;SDS011;26021;45.640;11.302;2024-03-17T03:28:00;97.07;;;60.72;;
40314;SDS011;26021;45.640;11.302;2024-03-17T03:30:26;100.63;;;62.28;;
40314;SDS011;26021;45.640;11.302;2024-03-17T03:32:52;94.07;;;60.58;;
40314;SDS011;26021;45.640;11.302;2024-03-17T03:35:18;92.57;;;60.97;;
40314;SDS011;26021;45.640;11.302;2024-03-17T03:37:44;87.82;;;57.28;;
40314;SDS011;26021;45.640;11.302;2024-03-17T03:40:10;87.28;;;55.95;;
40314;SDS011;26021;45.640;11.302;2024-03-17T03:42:45;83.70;;;54.42;;
40314;SDS011;26021;45.640;11.302;2024-03-17T03:45:12;83.13;;;54.88;;
40314;SDS011;26021;45.640;11.302;2024-03-17T03:47:40;93.88;;;57.33;;
40314;SDS011;26021;45.640;11.302;2024-03-17T03:50:07;86.90;;;55.50;;
40314;SDS011;26021;45.640;11.302;2024-03-17T03:52:36;80.95;;;52.65;;
40314;SDS011;26021;45.640;11.302;2024-03-17T03:55:03;87.63;;;54.10;;
40314;SDS011;26021;45.640;11.302;2024-03-17T03:57:30;80.70;;;54.00;;
40314;SDS011;26021;45.640;11.302;2024-03-17T03:59:57;79.80;;;52.00;;
40314;SDS011;26021;45.640;11.302;2024-03-17T04:02:22;77.40;;;50.70;;
40314;SDS011;26021;45.640;11.302;2024-03-17T04:04:50;79.63;;;52.28;;
40314;SDS011;26021;45.640;11.302;2024-03-17T04:07:15;81.07;;;53.33;;
40314;SDS011;26021;45.640;11.302;2024-03-17T04:09:41;80.15;;;52.20;;
40314;SDS011;26021;45.640;11.302;2024-03-17T04:12:07;80.57;;;53.10;;
40314;SDS011;26021;45.640;11.302;2024-03-17T04:14:32;80.85;;;53.97;;
40314;SDS011;26021;45.640;11.302;2024-03-17T04:16:58;81.38;;;54.30;;
40314;SDS011;26021;45.640;11.302;2024-03-17T04:19:24;73.72;;;50.15;;
40314;SDS011;26021;45.640;11.302;2024-03-17T04:21:51;83.15;;;54.75;;
40314;SDS011;26021;45.640;11.302;2024-03-17T04:24:16;76.45;;;51.33;;
40314;SDS011;26021;45.640;11.302;2024-03-17T04:26:43;78.50;;;54.58;;
40314;SDS011;26021;45.640;11.302;2024-03-17T04:29:08;84.40;;;54.80;;
40314;SDS011;26021;45.640;11.302;2024-03-17T04:31:34;79.93;;;51.38;;
40314;SDS011;26021;45.640;11.302;2024-03-17T04:33:59;76.28;;;51.65;;
40314;SDS011;26021;45.640;11.302;2024-03-17T04:36:25;79.07;;;53.08;;
40314;SDS011;26021;45.640;11.302;2024-03-17T04:38:50;79.38;;;52.20;;
40314;SDS011;26021;45.640;11.302;2024-03-17T04:41:19;80.22;;;51.63;;
40314;SDS011;26021;45.640;11.302;2024-03-17T04:43:44;80.88;;;52.55;;
40314;SDS011;26021;45.640;11.302;2024-03-17T04:46:09;78.72;;;52.80;;
40314;SDS011;26021;45.640;11.302;2024-03-17T04:48:37;81.75;;;51.40;;
40314;SDS011;26021;45.640;11.302;2024-03-17T04:51:02;74.13;;;50.00;;
40314;SDS011;26021;45.640;11.302;2024-03-17T04:53:28;82.03;;;52.50;;
40314;SDS011;26021;45.640;11.302;2024-03-17T04:56:12;78.45;;;49.72;;
40314;SDS011;26021;45.640;11.302;2024-03-17T04:58:38;72.20;;;48.58;;
40314;SDS011;26021;45.640;11.302;2024-03-17T05:01:04;80.97;;;51.63;;
40314;SDS011;26021;45.640;11.302;2024-03-17T05:03:33;84.25;;;51.92;;
40314;SDS011;26021;45.640;11.302;2024-03-17T05:06:03;81.32;;;51.85;;
40314;SDS011;26021;45.640;11.302;2024-03-17T05:08:29;87.65;;;55.30;;
40314;SDS011;26021;45.640;11.302;2024-03-17T05:11:00;83.47;;;53.92;;
40314;SDS011;26021;45.640;11.302;2024-03-17T05:13:33;85.30;;;52.25;;
40314;SDS011;26021;45.640;11.302;2024-03-17T05:15:59;83.95;;;53.10;;
40314;SDS011;26021;45.640;11.302;2024-03-17T05:18:26;83.28;;;51.92;;
40314;SDS011;26021;45.640;11.302;2024-03-17T05:21:01;78.97;;;52.03;;
40314;SDS011;26021;45.640;11.302;2024-03-17T05:23:29;80.38;;;53.45;;
40314;SDS011;26021;45.640;11.302;2024-03-17T05:25:56;80.07;;;52.92;;
40314;SDS011;26021;45.640;11.302;2024-03-17T05:28:23;81.32;;;53.47;;
40314;SDS011;26021;45.640;11.302;2024-03-17T05:30:49;80.40;;;53.75;;
40314;SDS011;26021;45.640;11.302;2024-03-17T05:33:16;78.00;;;49.28;;
40314;SDS011;26021;45.640;11.302;2024-03-17T05:35:49;73.40;;;47.45;;
40314;SDS011;26021;45.640;11.302;2024-03-17T05:38:19;67.72;;;44.70;;
40314;SDS011;26021;45.640;11.302;2024-03-17T05:41:08;67.28;;;46.85;;
40314;SDS011;26021;45.640;11.302;2024-03-17T05:43:33;66.63;;;45.70;;
40314;SDS011;26021;45.640;11.302;2024-03-17T05:46:06;70.30;;;46.25;;
40314;SDS011;26021;45.640;11.302;2024-03-17T05:48:33;78.93;;;50.45;;
40314;SDS011;26021;45.640;11.302;2024-03-17T05:51:04;78.65;;;51.42;;
40314;SDS011;26021;45.640;11.302;2024-03-17T05:53:33;73.95;;;48.90;;
40314;SDS011;26021;45.640;11.302;2024-03-17T05:55:59;74.97;;;49.33;;
40314;SDS011;26021;45.640;11.302;2024-03-17T05:58:25;77.43;;;49.85;;
40314;SDS011;26021;45.640;11.302;2024-03-17T06:00:51;74.18;;;48.72;;
40314;SDS011;26021;45.640;11.302;2024-03-17T06:03:16;77.40;;;48.95;;
40314;SDS011;26021;45.640;11.302;2024-03-17T06:05:42;74.53;;;50.10;;
40314;SDS011;26021;45.640;11.302;2024-03-17T06:08:09;76.32;;;47.15;;
40314;SDS011;26021;45.640;11.302;2024-03-17T06:10:36;71.85;;;47.88;;
40314;SDS011;26021;45.640;11.302;2024-03-17T06:13:02;78.10;;;48.78;;
40314;SDS011;26021;45.640;11.302;2024-03-17T06:15:28;76.88;;;49.17;;
40314;SDS011;26021;45.640;11.302;2024-03-17T06:17:54;71.30;;;48.10;;
40314;SDS011;26021;45.640;11.302;2024-03-17T06:20:21;68.03;;;48.17;;
40314;SDS011;26021;45.640;11.302;2024-03-17T06:22:49;71.45;;;48.30;;
40314;SDS011;26021;45.640;11.302;2024-03-17T06:25:15;64.18;;;44.97;;
40314;SDS011;26021;45.640;11.302;2024-03-17T06:27:41;68.63;;;45.20;;
40314;SDS011;26021;45.640;11.302;2024-03-17T06:30:10;62.25;;;45.33;;
40314;SDS011;26021;45.640;11.302;2024-03-17T06:32:42;60.85;;;42.55;;
40314;SDS011;26021;45.640;11.302;2024-03-17T06:35:10;61.50;;;42.42;;
40314;SDS011;26021;45.640;11.302;2024-03-17T06:37:36;61.58;;;43.95;;
40314;SDS011;26021;45.640;11.302;2024-03-17T06:40:02;59.95;;;43.40;;
40314;SDS011;26021;45.640;11.302;2024-03-17T06:42:31;59.42;;;42.05;;
40314;SDS011;26021;45.640;11.302;2024-03-17T06:44:56;58.03;;;40.95;;
40314;SDS011;26021;45.640;11.302;2024-03-17T06:47:23;56.58;;;40.03;;
40314;SDS011;26021;45.640;11.302;2024-03-17T06:49:48;60.40;;;41.35;;
40314;SDS011;26021;45.640;11.302;2024-03-17T06:52:14;58.67;;;41.70;;
40314;SDS011;26021;45.640;11.302;2024-03-17T06:54:39;60.67;;;42.47;;
40314;SDS011;26021;45.640;11.302;2024-03-17T06:57:05;65.03;;;44.58;;
40314;SDS011;26021;45.640;11.302;2024-03-17T06:59:34;58.55;;;41.60;;
40314;SDS011;26021;45.640;11.302;2024-03-17T07:01:59;63.10;;;44.55;;
40314;SDS011;26021;45.640;11.302;2024-03-17T07:04:26;63.25;;;45.17;;
40314;SDS011;26021;45.640;11.302;2024-03-17T07:06:51;63.95;;;46.20;;
40314;SDS011;26021;45.640;11.302;2024-03-17T07:09:17;59.75;;;42.70;;
40314;SDS011;26021;45.640;11.302;2024-03-17T07:11:42;64.25;;;45.38;;
40314;SDS011;26021;45.640;11.302;2024-03-17T07:14:09;60.00;;;42.83;;
40314;SDS011;26021;45.640;11.302;2024-03-17T07:16:34;59.47;;;44.30;;
40314;SDS011;26021;45.640;11.302;2024-03-17T07:19:01;67.35;;;46.53;;
40314;SDS011;26021;45.640;11.302;2024-03-17T07:21:27;70.88;;;50.58;;
40314;SDS011;26021;45.640;11.302;2024-03-17T07:23:52;74.85;;;52.17;;
40314;SDS011;26021;45.640;11.302;2024-03-17T07:26:18;52.78;;;40.20;;
40314;SDS011;26021;45.640;11.302;2024-03-17T07:28:43;45.70;;;33.95;;
40314;SDS011;26021;45.640;11.302;2024-03-17T07:31:09;46.58;;;32.60;;
40314;SDS011;26021;45.640;11.302;2024-03-17T07:33:35;50.53;;;36.15;;
40314;SDS011;26021;45.640;11.302;2024-03-17T07:36:01;47.08;;;35.10;;
40314;SDS011;26021;45.640;11.302;2024-03-17T07:38:27;46.60;;;34.40;;
40314;SDS011;26021;45.640;11.302;2024-03-17T07:43:24;39.33;;;30.88;;
40314;SDS011;26021;45.640;11.302;2024-03-17T07:46:00;36.83;;;29.25;;
40314;SDS011;26021;45.640;11.302;2024-03-17T07:48:30;38.10;;;29.23;;
40314;SDS011;26021;45.640;11.302;2024-03-17T07:51:02;38.13;;;28.35;;
40314;SDS011;26021;45.640;11.302;2024-03-17T07:53:32;38.63;;;29.20;;
40314;SDS011;26021;45.640;11.302;2024-03-17T07:56:04;35.90;;;28.75;;
40314;SDS011;26021;45.640;11.302;2024-03-17T07:58:40;38.80;;;29.50;;
40314;SDS011;26021;45.640;11.302;2024-03-17T08:01:07;39.42;;;29.90;;
40314;SDS011;26021;45.640;11.302;2024-03-17T08:03:35;38.78;;;29.80;;
40314;SDS011;26021;45.640;11.302;2024-03-17T08:06:05;38.90;;;30.92;;
40314;SDS011;26021;45.640;11.302;2024-03-17T08:08:32;38.42;;;28.42;;
40314;SDS011;26021;45.640;11.302;2024-03-17T08:10:58;45.72;;;34.75;;
40314;SDS011;26021;45.640;11.302;2024-03-17T08:13:25;48.72;;;36.63;;
40314;SDS011;26021;45.640;11.302;2024-03-17T08:15:58;49.67;;;38.72;;
40314;SDS011;26021;45.640;11.302;2024-03-17T08:18:25;49.80;;;39.50;;
40314;SDS011;26021;45.640;11.302;2024-03-17T08:20:52;54.53;;;42.53;;
40314;SDS011;26021;45.640;11.302;2024-03-17T08:23:18;57.83;;;43.80;;
40314;SDS011;26021;45.640;11.302;2024-03-17T08:25:51;59.17;;;43.92;;
40314;SDS011;26021;45.640;11.302;2024-03-17T08:28:20;64.78;;;47.97;;
40314;SDS011;26021;45.640;11.302;2024-03-17T08:30:58;63.53;;;46.53;;
40314;SDS011;26021;45.640;11.302;2024-03-17T08:33:27;61.25;;;46.28;;
40314;SDS011;26021;45.640;11.302;2024-03-17T08:35:54;66.18;;;48.60;;
40314;SDS011;26021;45.640;11.302;2024-03-17T08:38:24;63.55;;;48.88;;
40314;SDS011;26021;45.640;11.302;2024-03-17T08:40:53;66.88;;;49.53;;
40314;SDS011;26021;45.640;11.302;2024-03-17T08:43:19;72.15;;;53.47;;
40314;SDS011;26021;45.640;11.302;2024-03-17T08:45:53;74.50;;;55.33;;
40314;SDS011;26021;45.640;11.302;2024-03-17T08:48:20;78.15;;;55.85;;
40314;SDS011;26021;45.640;11.302;2024-03-17T08:50:51;72.78;;;53.55;;
40314;SDS011;26021;45.640;11.302;2024-03-17T08:53:18;75.47;;;56.80;;
40314;SDS011;26021;45.640;11.302;2024-03-17T08:55:44;75.72;;;55.88;;
40314;SDS011;26021;45.640;11.302;2024-03-17T08:58:09;77.55;;;57.58;;
40314;SDS011;26021;45.640;11.302;2024-03-17T09:00:35;82.15;;;57.78;;
40314;SDS011;26021;45.640;11.302;2024-03-17T09:03:01;82.57;;;56.13;;
40314;SDS011;26021;45.640;11.302;2024-03-17T09:05:28;71.72;;;52.60;;
40314;SDS011;26021;45.640;11.302;2024-03-17T09:07:53;74.07;;;56.47;;
40314;SDS011;26021;45.640;11.302;2024-03-17T09:10:20;72.85;;;55.10;;
40314;SDS011;26021;45.640;11.302;2024-03-17T09:12:46;77.82;;;55.17;;
40314;SDS011;26021;45.640;11.302;2024-03-17T09:15:12;67.50;;;53.42;;
40314;SDS011;26021;45.640;11.302;2024-03-17T09:17:39;76.63;;;55.88;;
40314;SDS011;26021;45.640;11.302;2024-03-17T09:20:05;83.70;;;58.10;;
40314;SDS011;26021;45.640;11.302;2024-03-17T09:22:36;79.18;;;57.22;;
40314;SDS011;26021;45.640;11.302;2024-03-17T09:25:05;78.25;;;58.33;;
40314;SDS011;26021;45.640;11.302;2024-03-17T09:27:35;72.43;;;55.88;;
40314;SDS011;26021;45.640;11.302;2024-03-17T09:30:04;79.82;;;57.15;;
40314;SDS011;26021;45.640;11.302;2024-03-17T09:32:36;84.55;;;58.20;;
40314;SDS011;26021;45.640;11.302;2024-03-17T09:35:02;82.60;;;58.47;;
40314;SDS011;26021;45.640;11.302;2024-03-17T09:37:28;81.35;;;57.97;;
40314;SDS011;26021;45.640;11.302;2024-03-17T09:39:56;79.28;;;59.72;;
40314;SDS011;26021;45.640;11.302;2024-03-17T09:42:25;83.18;;;59.28;;
40314;SDS011;26021;45.640;11.302;2024-03-17T09:44:52;78.70;;;57.63;;
40314;SDS011;26021;45.640;11.302;2024-03-17T09:47:22;79.68;;;56.80;;
40314;SDS011;26021;45.640;11.302;2024-03-17T09:49:49;79.28;;;58.03;;
40314;SDS011;26021;45.640;11.302;2024-03-17T09:55:09;79.30;;;58.00;;
40314;SDS011;26021;45.640;11.302;2024-03-17T09:57:38;83.22;;;58.20;;
40314;SDS011;26021;45.640;11.302;2024-03-17T10:00:14;85.18;;;59.85;;
40314;SDS011;26021;45.640;11.302;2024-03-17T10:02:46;80.93;;;56.80;;
40314;SDS011;26021;45.640;11.302;2024-03-17T10:05:22;75.20;;;56.05;;
40314;SDS011;26021;45.640;11.302;2024-03-17T10:07:49;72.10;;;53.60;;
40314;SDS011;26021;45.640;11.302;2024-03-17T10:10:16;71.32;;;54.78;;
40314;SDS011;26021;45.640;11.302;2024-03-17T10:12:43;66.03;;;51.95;;
40314;SDS011;26021;45.640;11.302;2024-03-17T10:15:12;74.18;;;51.40;;
40314;SDS011;26021;45.640;11.302;2024-03-17T10:17:38;72.63;;;52.88;;
40314;SDS011;26021;45.640;11.302;2024-03-17T10:23:03;69.60;;;51.40;;
40314;SDS011;26021;45.640;11.302;2024-03-17T10:25:36;69.22;;;49.35;;
40314;SDS011;26021;45.640;11.302;2024-03-17T10:28:09;67.30;;;49.17;;
40314;SDS011;26021;45.640;11.302;2024-03-17T10:30:36;61.20;;;47.00;;
40314;SDS011;26021;45.640;11.302;2024-03-17T10:33:02;61.17;;;46.78;;
40314;SDS011;26021;45.640;11.302;2024-03-17T10:35:33;60.72;;;46.13;;
40314;SDS011;26021;45.640;11.302;2024-03-17T10:38:03;61.78;;;46.25;;
40314;SDS011;26021;45.640;11.302;2024-03-17T10:40:31;58.33;;;45.42;;
40314;SDS011;26021;45.640;11.302;2024-03-17T10:42:59;62.50;;;45.25;;
40314;SDS011;26021;45.640;11.302;2024-03-17T10:45:26;62.22;;;45.78;;
40314;SDS011;26021;45.640;11.302;2024-03-17T10:47:55;63.65;;;45.28;;
40314;SDS011;26021;45.640;11.302;2024-03-17T10:50:25;59.63;;;43.75;;
40314;SDS011;26021;45.640;11.302;2024-03-17T10:52:55;58.80;;;43.83;;
40314;SDS011;26021;45.640;11.302;2024-03-17T10:55:28;54.42;;;41.90;;
40314;SDS011;26021;45.640;11.302;2024-03-17T10:57:57;56.80;;;42.38;;
40314;SDS011;26021;45.640;11.302;2024-03-17T11:00:29;57.25;;;44.30;;
40314;SDS011;26021;45.640;11.302;2024-03-17T11:02:55;53.90;;;41.75;;
40314;SDS011;26021;45.640;11.302;2024-03-17T11:05:24;58.08;;;41.72;;
40314;SDS011;26021;45.640;11.302;2024-03-17T11:07:54;53.97;;;40.30;;
40314;SDS011;26021;45.640;11.302;2024-03-17T11:10:23;53.83;;;41.08;;
40314;SDS011;26021;45.640;11.302;2024-03-17T11:12:58;56.15;;;40.63;;
40314;SDS011;26021;45.640;11.302;2024-03-17T11:17:54;50.72;;;39.53;;
40314;SDS011;26021;45.640;11.302;2024-03-17T11:20:55;55.92;;;39.80;;
40314;SDS011;26021;45.640;11.302;2024-03-17T11:23:27;51.08;;;40.25;;
40314;SDS011;26021;45.640;11.302;2024-03-17T11:25:54;52.38;;;38.78;;
40314;SDS011;26021;45.640;11.302;2024-03-17T11:34:01;48.00;;;37.38;;
40314;SDS011;26021;45.640;11.302;2024-03-17T11:39:00;50.35;;;36.70;;
40314;SDS011;26021;45.640;11.302;2024-03-17T11:41:45;46.10;;;35.83;;
40314;SDS011;26021;45.640;11.302;2024-03-17T11:46:58;47.38;;;35.67;;
40314;SDS011;26021;45.640;11.302;2024-03-17T11:49:29;41.30;;;32.92;;
40314;SDS011;26021;45.640;11.302;2024-03-17T11:52:10;45.60;;;35.88;;
40314;SDS011;26021;45.640;11.302;2024-03-17T11:54:38;44.97;;;33.78;;
40314;SDS011;26021;45.640;11.302;2024-03-17T11:57:09;45.00;;;34.70;;
40314;SDS011;26021;45.640;11.302;2024-03-17T11:59:36;39.95;;;31.08;;
40314;SDS011;26021;45.640;11.302;2024-03-17T12:02:07;46.03;;;33.90;;
40314;SDS011;26021;45.640;11.302;2024-03-17T12:04:38;43.55;;;33.75;;
40314;SDS011;26021;45.640;11.302;2024-03-17T12:07:09;54.28;;;34.15;;
40314;SDS011;26021;45.640;11.302;2024-03-17T12:09:38;42.10;;;32.08;;
40314;SDS011;26021;45.640;11.302;2024-03-17T12:12:08;39.92;;;30.42;;
40314;SDS011;26021;45.640;11.302;2024-03-17T12:14:36;42.30;;;33.25;;
40314;SDS011;26021;45.640;11.302;2024-03-17T12:17:03;40.47;;;31.83;;
40314;SDS011;26021;45.640;11.302;2024-03-17T12:19:30;39.08;;;31.50;;
40314;SDS011;26021;45.640;11.302;2024-03-17T12:21:56;39.65;;;31.10;;
40314;SDS011;26021;45.640;11.302;2024-03-17T12:24:25;38.67;;;30.70;;
40314;SDS011;26021;45.640;11.302;2024-03-17T12:26:52;38.30;;;30.05;;
40314;SDS011;26021;45.640;11.302;2024-03-17T12:29:30;33.97;;;28.40;;
40314;SDS011;26021;45.640;11.302;2024-03-17T12:32:02;36.20;;;28.85;;
40314;SDS011;26021;45.640;11.302;2024-03-17T12:34:30;39.45;;;29.38;;
40314;SDS011;26021;45.640;11.302;2024-03-17T12:36:57;36.72;;;28.48;;
40314;SDS011;26021;45.640;11.302;2024-03-17T12:42:06;37.35;;;28.27;;
40314;SDS011;26021;45.640;11.302;2024-03-17T12:44:35;34.42;;;25.85;;
40314;SDS011;26021;45.640;11.302;2024-03-17T12:47:02;37.05;;;28.20;;
40314;SDS011;26021;45.640;11.302;2024-03-17T12:49:30;32.85;;;25.65;;
40314;SDS011;26021;45.640;11.302;2024-03-17T12:51:57;35.30;;;26.98;;
40314;SDS011;26021;45.640;11.302;2024-03-17T12:54:24;32.10;;;24.45;;
40314;SDS011;26021;45.640;11.302;2024-03-17T12:56:51;34.83;;;27.17;;
40314;SDS011;26021;45.640;11.302;2024-03-17T12:59:47;30.75;;;25.25;;
40314;SDS011;26021;45.640;11.302;2024-03-17T13:02:31;31.57;;;26.93;;
40314;SDS011;26021;45.640;11.302;2024-03-17T13:05:15;34.38;;;26.35;;
40314;SDS011;26021;45.640;11.302;2024-03-17T13:07:43;31.92;;;26.27;;
40314;SDS011;26021;45.640;11.302;2024-03-17T13:10:12;32.60;;;24.42;;
40314;SDS011;26021;45.640;11.302;2024-03-17T13:12:40;32.70;;;25.23;;
40314;SDS011;26021;45.640;11.302;2024-03-17T13:15:08;30.73;;;26.20;;
40314;SDS011;26021;45.640;11.302;2024-03-17T13:17:35;33.28;;;25.60;;
40314;SDS011;26021;45.640;11.302;2024-03-17T13:20:00;31.88;;;24.83;;
40314;SDS011;26021;45.640;11.302;2024-03-17T13:22:27;32.13;;;23.98;;
40314;SDS011;26021;45.640;11.302;2024-03-17T13:24:52;28.73;;;23.50;;
40314;SDS011;26021;45.640;11.302;2024-03-17T13:27:18;30.50;;;24.55;;
40314;SDS011;26021;45.640;11.302;2024-03-17T13:29:47;30.08;;;25.02;;
40314;SDS011;26021;45.640;11.302;2024-03-17T13:32:14;31.35;;;24.65;;
40314;SDS011;26021;45.640;11.302;2024-03-17T13:34:40;30.73;;;23.15;;
40314;SDS011;26021;45.640;11.302;2024-03-17T13:37:06;28.45;;;22.42;;
40314;SDS011;26021;45.640;11.302;2024-03-17T13:39:32;26.17;;;21.83;;
40314;SDS011;26021;45.640;11.302;2024-03-17T13:41:58;29.10;;;23.42;;
40314;SDS011;26021;45.640;11.302;2024-03-17T13:44:31;29.95;;;22.92;;
40314;SDS011;26021;45.640;11.302;2024-03-17T13:46:57;31.55;;;22.85;;
40314;SDS011;26021;45.640;11.302;2024-03-17T13:49:23;31.27;;;23.00;;
40314;SDS011;26021;45.640;11.302;2024-03-17T13:51:52;26.50;;;22.27;;
40314;SDS011;26021;45.640;11.302;2024-03-17T13:54:18;25.05;;;22.27;;
40314;SDS011;26021;45.640;11.302;2024-03-17T13:56:46;30.13;;;22.55;;
40314;SDS011;26021;45.640;11.302;2024-03-17T13:59:12;26.88;;;21.73;;
40314;SDS011;26021;45.640;11.302;2024-03-17T14:01:38;26.33;;;20.98;;
40314;SDS011;26021;45.640;11.302;2024-03-17T14:04:03;23.17;;;19.98;;
40314;SDS011;26021;45.640;11.302;2024-03-17T14:06:29;28.42;;;22.60;;
40314;SDS011;26021;45.640;11.302;2024-03-17T14:08:55;25.55;;;20.33;;
40314;SDS011;26021;45.640;11.302;2024-03-17T14:11:20;27.98;;;22.58;;
40314;SDS011;26021;45.640;11.302;2024-03-17T14:13:46;30.23;;;21.80;;
40314;SDS011;26021;45.640;11.302;2024-03-17T14:16:11;26.95;;;20.98;;
40314;SDS011;26021;45.640;11.302;2024-03-17T14:18:37;29.15;;;22.60;;
40314;SDS011;26021;45.640;11.302;2024-03-17T14:21:02;26.20;;;21.98;;
40314;SDS011;26021;45.640;11.302;2024-03-17T14:23:28;28.55;;;22.73;;
40314;SDS011;26021;45.640;11.302;2024-03-17T14:25:55;26.42;;;21.60;;
40314;SDS011;26021;45.640;11.302;2024-03-17T14:28:20;27.95;;;22.52;;
40314;SDS011;26021;45.640;11.302;2024-03-17T14:30:47;30.20;;;23.20;;
40314;SDS011;26021;45.640;11.302;2024-03-17T14:33:12;28.98;;;22.95;;
40314;SDS011;26021;45.640;11.302;2024-03-17T14:35:38;27.08;;;21.88;;
40314;SDS011;26021;45.640;11.302;2024-03-17T14:38:06;28.38;;;21.58;;